Time;durP1;ratioP1;P1;durP2;ratioP2;P2;SDS_P1;SDS_P2;PMS_P1;PMS_P2;Temp;Humidity;BMP_temperature;BMP_pressure;BME280_temperature;BME280_humidity;BME280_pressure;Samples;Min_cycle;Max_cycle;Signal;HPM_P1;HPM_P2
2023/04/13 00:00:17;;;;;;;3.70;1.25;;;10.80;99.90;;;;;;5052046;28;20056;-63
2023/04/13 00:02:44;;;;;;;5.63;1.60;;;10.80;99.90;;;;;;5051999;28;20021;-62
2023/04/13 00:05:10;;;;;;;7.10;1.77;;;10.80;99.90;;;;;;5051884;28;20029;-62
2023/04/13 00:07:37;;;;;;;11.40;2.28;;;10.90;99.90;;;;;;5051782;28;20025;-63
2023/04/13 00:10:08;;;;;;;7.80;2.05;;;10.80;99.90;;;;;;5053392;28;20032;-63
2023/04/13 00:12:39;;;;;;;7.40;1.73;;;10.80;99.90;;;;;;5056017;28;20145;-62
2023/04/13 00:15:06;;;;;;;8.85;1.90;;;10.70;99.90;;;;;;5056080;28;20405;-63
2023/04/13 00:17:36;;;;;;;5.00;1.60;;;10.70;99.90;;;;;;5056026;28;20078;-63
2023/04/13 00:20:06;;;;;;;7.25;1.60;;;10.70;99.90;;;;;;5055774;28;20029;-62
2023/04/13 00:22:33;;;;;;;10.48;1.60;;;10.60;99.90;;;;;;5055745;28;20029;-63
2023/04/13 00:24:58;;;;;;;5.85;1.30;;;10.60;99.90;;;;;;5055426;28;20017;-62
2023/04/13 00:27:26;;;;;;;4.75;1.30;;;10.40;99.90;;;;;;5056055;28;20511;-62
2023/04/13 00:29:55;;;;;;;5.15;1.40;;;10.50;99.90;;;;;;5055736;28;20029;-63
2023/04/13 00:32:21;;;;;;;3.13;1.17;;;10.40;99.90;;;;;;5055653;28;20037;-62
2023/04/13 00:34:47;;;;;;;5.07;1.20;;;10.30;99.90;;;;;;5055930;28;20507;-62
2023/04/13 00:37:13;;;;;;;3.90;1.30;;;10.30;99.90;;;;;;5054907;28;20051;-62
2023/04/13 00:39:42;;;;;;;4.68;1.20;;;10.20;99.90;;;;;;5055095;28;20045;-62
2023/04/13 00:42:08;;;;;;;4.45;1.30;;;10.10;99.90;;;;;;5055422;28;20363;-63
2023/04/13 00:44:34;;;;;;;4.20;1.30;;;10.10;99.90;;;;;;5055447;28;20043;-62
2023/04/13 00:47:02;;;;;;;3.67;1.20;;;10.30;99.90;;;;;;5055419;28;20055;-63
2023/04/13 00:49:29;;;;;;;3.83;1.40;;;10.20;99.90;;;;;;5055549;28;20108;-63
2023/04/13 00:51:55;;;;;;;5.70;1.50;;;10.10;99.90;;;;;;5053854;28;20404;-62
2023/04/13 00:54:21;;;;;;;4.03;1.27;;;10.00;99.90;;;;;;5054825;28;20029;-62
2023/04/13 00:56:48;;;;;;;4.13;1.50;;;10.00;99.90;;;;;;5054935;28;20470;-62
2023/04/13 00:59:16;;;;;;;5.20;1.35;;;10.10;99.90;;;;;;5055089;28;20021;-62
2023/04/13 01:01:45;;;;;;;6.53;1.75;;;10.10;99.90;;;;;;5055058;28;20055;-62
2023/04/13 01:04:19;;;;;;;8.18;2.10;;;10.10;99.90;;;;;;5054949;28;20029;-62
2023/04/13 01:06:57;;;;;;;7.30;1.75;;;10.00;99.90;;;;;;5055347;28;20098;-63
2023/04/13 01:09:30;;;;;;;8.13;1.70;;;10.00;99.90;;;;;;5054640;28;20104;-62
2023/04/13 01:12:16;;;;;;;6.18;1.80;;;10.10;99.90;;;;;;5055022;28;20028;-62
2023/04/13 01:15:07;;;;;;;7.53;1.85;;;10.10;99.90;;;;;;5054811;28;20041;-62
2023/04/13 01:17:36;;;;;;;7.97;1.77;;;10.10;99.90;;;;;;5053323;28;20136;-62
2023/04/13 01:20:09;;;;;;;8.18;1.98;;;9.90;99.90;;;;;;5054568;28;20051;-62
2023/04/13 01:22:38;;;;;;;7.78;2.00;;;10.10;99.90;;;;;;5053506;28;20486;-62
2023/04/13 01:25:40;;;;;;;6.60;1.95;;;10.00;99.90;;;;;;5053364;28;20061;-63
2023/04/13 01:28:07;;;;;;;7.40;1.73;;;10.00;99.90;;;;;;5054567;28;20025;-62
2023/04/13 01:30:35;;;;;;;10.00;2.00;;;10.00;99.90;;;;;;5054532;28;20049;-62
2023/04/13 01:33:02;;;;;;;7.72;2.10;;;10.00;99.90;;;;;;5054918;28;20536;-62
2023/04/13 01:35:29;;;;;;;10.60;2.15;;;10.00;99.90;;;;;;5053956;28;20080;-62
2023/04/13 01:37:58;;;;;;;10.30;2.60;;;10.10;99.90;;;;;;5053885;28;20081;-62
2023/04/13 01:40:25;;;;;;;8.60;2.10;;;10.10;99.90;;;;;;5054623;28;20690;-62
2023/04/13 01:42:51;;;;;;;11.10;2.30;;;10.00;99.90;;;;;;5054239;28;20389;-62
2023/04/13 01:45:22;;;;;;;11.52;2.72;;;10.00;99.90;;;;;;5054275;28;20029;-63
2023/04/13 01:48:05;;;;;;;12.02;2.60;;;10.00;99.90;;;;;;5054165;28;20032;-62
2023/04/13 01:50:36;;;;;;;10.63;2.53;;;10.00;99.90;;;;;;5053904;28;20118;-63
2023/04/13 01:53:16;;;;;;;10.77;2.25;;;10.10;99.90;;;;;;5054387;28;20025;-62
2023/04/13 01:55:43;;;;;;;13.88;2.53;;;10.10;99.90;;;;;;5054116;28;20036;-62
2023/04/13 01:58:11;;;;;;;11.00;2.58;;;10.10;99.90;;;;;;5053804;28;20592;-62
2023/04/13 02:00:38;;;;;;;9.07;2.30;;;10.10;99.90;;;;;;5054398;28;20017;-63
2023/04/13 02:03:05;;;;;;;9.85;2.30;;;10.10;99.90;;;;;;5053792;28;20025;-62
2023/04/13 02:05:38;;;;;;;14.13;2.70;;;10.10;99.90;;;;;;5053444;28;20029;-63
2023/04/13 02:08:06;;;;;;;12.43;2.38;;;10.00;99.90;;;;;;5053824;28;20098;-63
2023/04/13 02:10:36;;;;;;;14.05;2.60;;;10.10;99.90;;;;;;5053846;28;20033;-62
2023/04/13 02:13:03;;;;;;;13.18;2.45;;;10.10;99.90;;;;;;5053671;28;20033;-62
2023/04/13 02:15:38;;;;;;;12.13;2.75;;;10.10;99.90;;;;;;5053569;28;20032;-62
2023/04/13 02:18:04;;;;;;;10.43;2.50;;;10.10;99.90;;;;;;5053434;28;20043;-62
2023/04/13 02:20:43;;;;;;;17.00;2.88;;;10.10;99.90;;;;;;5053556;28;20021;-63
2023/04/13 02:23:10;;;;;;;16.10;2.60;;;10.10;99.90;;;;;;5053867;28;20052;-63
2023/04/13 02:25:36;;;;;;;13.10;2.38;;;10.10;99.90;;;;;;5053523;28;20099;-62
2023/04/13 02:28:03;;;;;;;12.30;3.03;;;10.10;99.90;;;;;;5053579;28;20100;-62
2023/04/13 02:30:29;;;;;;;15.90;3.15;;;10.00;99.90;;;;;;5052435;28;20028;-63
2023/04/13 02:32:54;;;;;;;15.02;2.83;;;10.20;99.90;;;;;;5053123;28;20025;-62
2023/04/13 02:35:20;;;;;;;12.82;2.88;;;10.20;99.90;;;;;;5053036;28;20025;-62
2023/04/13 02:37:47;;;;;;;14.38;2.95;;;10.20;99.90;;;;;;5053117;28;20102;-63
2023/04/13 02:40:13;;;;;;;13.90;3.05;;;10.30;99.90;;;;;;5053289;28;20035;-63
2023/04/13 02:42:39;;;;;;;14.60;3.22;;;10.40;99.90;;;;;;5053358;28;20025;-62
2023/04/13 02:45:07;;;;;;;13.55;3.20;;;10.40;99.90;;;;;;5052996;28;20111;-63
2023/04/13 02:47:33;;;;;;;14.43;3.15;;;10.40;99.90;;;;;;5053133;28;20071;-63
2023/04/13 02:50:02;;;;;;;17.70;3.65;;;10.50;99.90;;;;;;5053088;28;20025;-62
2023/04/13 02:52:28;;;;;;;16.20;3.70;;;10.50;99.90;;;;;;5052826;28;20025;-63
2023/04/13 02:54:54;;;;;;;12.95;3.03;;;10.60;99.90;;;;;;5053056;28;20504;-62
2023/04/13 02:57:21;;;;;;;12.82;3.10;;;10.70;99.90;;;;;;5052839;28;20056;-63
2023/04/13 02:59:47;;;;;;;11.50;2.33;;;10.60;99.90;;;;;;5052634;28;20041;-63
2023/04/13 03:02:13;;;;;;;6.05;1.35;;;10.50;99.90;;;;;;5053077;28;20043;-62
2023/04/13 03:04:39;;;;;;;3.72;1.30;;;10.40;99.90;;;;;;5052313;28;20505;-62
2023/04/13 03:07:08;;;;;;;4.25;1.00;;;10.20;99.90;;;;;;5052644;28;20101;-63
2023/04/13 03:09:39;;;;;;;6.13;1.00;;;10.10;99.90;;;;;;5052853;28;20486;-62
2023/04/13 03:12:06;;;;;;;2.83;0.82;;;9.90;99.90;;;;;;5052834;28;20024;-62
2023/04/13 03:14:32;;;;;;;1.60;0.70;;;9.80;99.90;;;;;;5052712;28;20033;-62
2023/04/13 03:16:58;;;;;;;2.13;0.70;;;9.70;99.90;;;;;;5052200;28;20445;-62
2023/04/13 03:19:27;;;;;;;3.00;0.80;;;9.60;99.90;;;;;;5052317;28;20033;-62
2023/04/13 03:21:53;;;;;;;2.80;0.80;;;9.40;99.90;;;;;;5052833;28;20104;-62
2023/04/13 03:24:19;;;;;;;4.45;1.00;;;9.50;99.90;;;;;;5052414;28;20108;-62
2023/04/13 03:26:45;;;;;;;3.58;0.90;;;9.70;99.90;;;;;;5052374;28;20044;-62
2023/04/13 03:29:10;;;;;;;2.03;1.10;;;9.50;99.90;;;;;;5052353;28;20051;-63
2023/04/13 03:31:36;;;;;;;6.25;1.25;;;9.60;99.90;;;;;;5052656;28;20108;-62
2023/04/13 03:34:02;;;;;;;3.60;0.90;;;9.50;99.90;;;;;;5051959;28;20600;-62
2023/04/13 03:36:27;;;;;;;4.72;1.00;;;9.40;99.90;;;;;;5052041;28;20049;-62
2023/04/13 03:38:54;;;;;;;3.70;1.10;;;9.50;99.90;;;;;;5051917;28;20123;-62
2023/04/13 03:41:20;;;;;;;5.18;1.15;;;9.50;99.90;;;;;;5052196;28;20385;-62
2023/04/13 03:43:45;;;;;;;4.45;1.27;;;9.50;99.90;;;;;;5052352;28;20033;-62
2023/04/13 03:46:12;;;;;;;4.72;1.20;;;9.50;99.90;;;;;;5050419;28;20116;-62
2023/04/13 03:48:39;;;;;;;5.45;1.40;;;9.40;99.90;;;;;;5051710;28;20512;-62
2023/04/13 03:51:05;;;;;;;3.58;1.40;;;9.40;99.90;;;;;;5052189;28;20080;-62
2023/04/13 03:53:31;;;;;;;4.68;1.35;;;9.40;99.90;;;;;;5051993;28;20040;-62
2023/04/13 03:55:57;;;;;;;4.97;1.58;;;9.40;99.90;;;;;;5052354;28;20037;-62
2023/04/13 03:58:23;;;;;;;4.22;1.50;;;9.30;99.90;;;;;;5051768;28;20029;-62
2023/04/13 04:00:48;;;;;;;8.05;1.55;;;9.40;99.90;;;;;;5051865;28;20032;-63
2023/04/13 04:03:16;;;;;;;7.38;1.40;;;9.20;99.90;;;;;;5052074;28;20065;-63
2023/04/13 04:05:42;;;;;;;5.05;1.48;;;9.20;99.90;;;;;;5051812;28;20100;-62
2023/04/13 04:08:07;;;;;;;5.28;1.50;;;9.20;99.90;;;;;;5051931;28;20063;-62
2023/04/13 04:10:33;;;;;;;7.40;2.10;;;9.20;99.90;;;;;;5052333;28;20477;-62
2023/04/13 04:12:59;;;;;;;10.27;2.20;;;9.10;99.90;;;;;;5051926;28;20032;-62
2023/04/13 04:15:25;;;;;;;10.70;2.50;;;9.30;99.90;;;;;;5051960;28;20021;-62
2023/04/13 04:17:50;;;;;;;8.95;2.85;;;9.30;99.90;;;;;;5051449;28;20029;-63
2023/04/13 04:20:17;;;;;;;13.90;2.67;;;9.30;99.90;;;;;;5052121;28;20032;-62
2023/04/13 04:22:46;;;;;;;13.95;2.42;;;9.40;99.90;;;;;;5051857;28;20033;-62
2023/04/13 04:25:20;;;;;;;8.38;2.30;;;9.30;99.90;;;;;;5051653;28;20067;-63
2023/04/13 04:27:51;;;;;;;11.25;2.80;;;9.30;99.90;;;;;;5051608;28;20511;-62
2023/04/13 04:30:21;;;;;;;10.98;2.42;;;9.30;99.90;;;;;;5051311;28;20075;-62
2023/04/13 04:32:47;;;;;;;15.15;3.55;;;9.30;99.90;;;;;;5051714;28;20025;-62
2023/04/13 04:35:13;;;;;;;12.88;3.05;;;9.30;99.90;;;;;;5051746;28;20029;-62
2023/04/13 04:37:39;;;;;;;11.45;2.88;;;9.40;99.90;;;;;;5051252;28;20055;-61
2023/04/13 04:40:08;;;;;;;10.93;3.03;;;9.50;99.90;;;;;;5051665;28;20805;-62
2023/04/13 04:42:36;;;;;;;12.68;3.13;;;9.50;99.90;;;;;;5051482;28;20078;-62
2023/04/13 04:45:03;;;;;;;12.88;3.22;;;9.40;99.90;;;;;;5051578;28;20583;-62
2023/04/13 04:47:29;;;;;;;12.50;2.80;;;9.40;99.90;;;;;;5051531;28;20124;-63
2023/04/13 04:49:56;;;;;;;10.10;2.70;;;9.50;99.90;;;;;;5051617;28;20496;-62
2023/04/13 04:52:25;;;;;;;12.20;2.83;;;9.50;99.90;;;;;;5051462;28;20025;-62
2023/04/13 04:54:52;;;;;;;12.00;2.90;;;9.50;99.90;;;;;;5051594;28;20033;-62
2023/04/13 04:57:18;;;;;;;10.07;2.90;;;9.50;99.90;;;;;;5053168;28;20482;-61
2023/04/13 04:59:44;;;;;;;11.25;2.75;;;9.40;99.90;;;;;;5054620;28;20029;-62
2023/04/13 05:02:10;;;;;;;12.02;2.72;;;9.40;99.90;;;;;;5055074;28;20104;-62
2023/04/13 05:04:37;;;;;;;8.23;2.33;;;9.30;99.90;;;;;;5055358;28;20024;-61
2023/04/13 05:07:03;;;;;;;9.75;2.40;;;9.30;99.90;;;;;;5054819;28;20055;-62
2023/04/13 05:09:28;;;;;;;8.38;2.30;;;9.30;99.90;;;;;;5054992;28;20025;-62
2023/04/13 05:11:55;;;;;;;10.57;2.30;;;9.20;99.90;;;;;;5054858;28;20079;-62
2023/04/13 05:14:20;;;;;;;6.50;2.08;;;9.20;99.90;;;;;;5054584;28;20432;-62
2023/04/13 05:16:46;;;;;;;5.65;1.98;;;9.30;99.90;;;;;;5054802;28;20025;-62
2023/04/13 05:19:12;;;;;;;8.63;2.05;;;9.20;99.90;;;;;;5054934;28;20040;-62
2023/04/13 05:21:38;;;;;;;7.15;2.17;;;9.30;99.90;;;;;;5054719;28;20035;-62
2023/04/13 05:24:03;;;;;;;8.10;2.20;;;9.30;99.90;;;;;;5054741;28;20025;-62
2023/04/13 05:26:29;;;;;;;8.32;2.20;;;9.30;99.90;;;;;;5054403;28;20133;-62
2023/04/13 05:28:56;;;;;;;9.77;2.35;;;9.20;99.90;;;;;;5054270;28;20025;-61
2023/04/13 05:31:23;;;;;;;12.75;2.40;;;9.20;99.90;;;;;;5054464;28;20029;-62
2023/04/13 05:33:49;;;;;;;14.13;2.88;;;9.30;99.90;;;;;;5054857;28;20025;-62
2023/04/13 05:36:15;;;;;;;10.60;2.40;;;9.30;99.90;;;;;;5054144;28;20048;-62
2023/04/13 05:38:41;;;;;;;10.88;2.50;;;9.20;99.90;;;;;;5054132;28;20040;-62
2023/04/13 05:41:09;;;;;;;8.93;2.50;;;9.30;99.90;;;;;;5054232;28;20370;-62
2023/04/13 05:43:34;;;;;;;12.07;2.45;;;9.20;99.90;;;;;;5054262;28;20068;-62
2023/04/13 05:46:00;;;;;;;9.93;2.63;;;9.30;99.90;;;;;;5054194;28;20053;-63
2023/04/13 05:48:26;;;;;;;11.63;3.13;;;9.20;99.90;;;;;;5054321;28;20055;-62
2023/04/13 05:50:58;;;;;;;9.82;2.72;;;9.30;99.90;;;;;;5053994;28;20021;-62
2023/04/13 05:53:24;;;;;;;16.10;2.90;;;9.30;99.90;;;;;;5054434;28;20028;-62
2023/04/13 05:55:51;;;;;;;22.38;5.10;;;9.30;99.90;;;;;;5053980;28;20029;-63
2023/04/13 05:58:20;;;;;;;16.20;3.78;;;9.50;99.90;;;;;;5053488;28;20036;-62
2023/04/13 06:00:46;;;;;;;17.92;3.70;;;9.40;99.90;;;;;;5053919;28;20025;-63
2023/04/13 06:03:14;;;;;;;16.58;3.40;;;9.40;99.90;;;;;;5053979;28;20495;-62
2023/04/13 06:05:40;;;;;;;16.60;3.83;;;9.60;99.90;;;;;;5053914;28;20081;-63
2023/04/13 06:08:09;;;;;;;15.60;3.65;;;9.60;99.90;;;;;;5053853;28;20147;-62
2023/04/13 06:10:35;;;;;;;20.33;4.20;;;9.70;99.90;;;;;;5053710;28;20029;-63
2023/04/13 06:13:01;;;;;;;19.75;3.28;;;9.80;99.90;;;;;;5053355;28;20025;-62
2023/04/13 06:15:27;;;;;;;16.23;3.72;;;10.00;99.90;;;;;;5054075;28;20017;-62
2023/04/13 06:17:52;;;;;;;14.20;3.22;;;10.00;99.90;;;;;;5053553;28;20044;-63
2023/04/13 06:20:21;;;;;;;17.15;3.60;;;10.10;99.90;;;;;;5053737;28;20036;-62
2023/04/13 06:22:47;;;;;;;18.48;3.63;;;10.20;99.90;;;;;;5053459;28;20029;-63
2023/04/13 06:25:13;;;;;;;19.40;3.83;;;10.20;99.90;;;;;;5053747;28;20493;-62
2023/04/13 06:27:42;;;;;;;13.00;3.00;;;10.20;99.90;;;;;;5053138;28;20029;-63
2023/04/13 06:30:09;;;;;;;18.08;3.63;;;10.20;99.90;;;;;;5053359;28;20505;-62
2023/04/13 06:32:35;;;;;;;18.05;3.17;;;10.10;99.90;;;;;;5053536;28;20071;-62
2023/04/13 06:35:04;;;;;;;16.30;3.00;;;10.10;99.90;;;;;;5053260;28;20025;-63
2023/04/13 06:37:29;;;;;;;18.77;3.72;;;10.10;99.90;;;;;;5052678;28;20053;-63
2023/04/13 06:39:58;;;;;;;14.60;3.17;;;10.10;99.90;;;;;;5053234;28;20033;-62
2023/04/13 06:42:23;;;;;;;16.00;3.40;;;10.20;99.90;;;;;;5053175;28;20021;-62
2023/04/13 06:44:49;;;;;;;15.73;3.10;;;10.30;99.90;;;;;;5052995;28;20033;-62
2023/04/13 06:47:15;;;;;;;14.38;2.80;;;10.20;99.90;;;;;;5053096;28;20033;-62
2023/04/13 06:49:41;;;;;;;12.27;2.80;;;10.30;99.90;;;;;;5052914;28;20036;-62
2023/04/13 06:52:07;;;;;;;13.50;2.85;;;10.40;99.90;;;;;;5053288;28;20056;-62
2023/04/13 06:54:34;;;;;;;11.65;2.55;;;10.50;99.90;;;;;;5050764;28;20054;-61
2023/04/13 06:57:00;;;;;;;13.77;2.50;;;10.60;99.90;;;;;;5052297;28;20473;-62
2023/04/13 06:59:26;;;;;;;11.10;2.47;;;10.70;99.90;;;;;;5051580;28;20025;-62
2023/04/13 07:01:52;;;;;;;9.75;2.13;;;10.70;99.90;;;;;;5052331;28;20439;-62
2023/04/13 07:04:18;;;;;;;9.07;2.30;;;10.70;99.90;;;;;;5052439;28;20029;-63
2023/04/13 07:06:44;;;;;;;8.82;1.92;;;10.80;99.90;;;;;;5049382;28;20013;-62
2023/04/13 07:09:10;;;;;;;8.15;2.53;;;10.80;99.90;;;;;;5052504;28;20143;-63
2023/04/13 07:11:35;;;;;;;10.43;2.30;;;10.90;99.90;;;;;;5052315;28;20024;-62
2023/04/13 07:14:02;;;;;;;10.48;2.28;;;10.90;99.90;;;;;;5052669;28;20021;-63
2023/04/13 07:16:28;;;;;;;12.50;2.80;;;11.00;99.90;;;;;;5052541;28;20059;-63
2023/04/13 07:18:53;;;;;;;10.70;2.90;;;11.00;99.90;;;;;;5049861;28;20033;-63
2023/04/13 07:21:20;;;;;;;12.23;2.28;;;10.90;99.90;;;;;;5052035;28;20028;-62
2023/04/13 07:23:45;;;;;;;8.32;1.70;;;10.80;99.90;;;;;;5052412;28;20033;-63
2023/04/13 07:26:13;;;;;;;10.98;2.70;;;10.60;99.90;;;;;;5051787;28;20473;-63
2023/04/13 07:28:39;;;;;;;8.75;3.10;;;10.50;99.90;;;;;;5052587;28;20025;-62
2023/04/13 07:31:05;;;;;;;7.05;2.33;;;10.70;99.90;;;;;;5051989;28;20036;-69
2023/04/13 07:33:31;;;;;;;7.80;1.80;;;10.80;99.90;;;;;;5051628;28;20079;-68
2023/04/13 07:35:57;;;;;;;4.32;1.63;;;10.70;99.90;;;;;;5050851;28;20046;-70
2023/04/13 07:38:24;;;;;;;5.20;1.80;;;10.70;99.90;;;;;;5051784;28;20052;-74
2023/04/13 07:40:50;;;;;;;5.60;1.83;;;10.80;99.90;;;;;;5051863;28;20032;-74
2023/04/13 07:43:16;;;;;;;5.63;2.20;;;10.70;99.90;;;;;;5052004;28;20108;-72
2023/04/13 07:45:42;;;;;;;9.13;2.63;;;10.70;99.90;;;;;;5051846;28;20100;-73
2023/04/13 07:48:07;;;;;;;11.55;2.60;;;10.70;99.90;;;;;;5052146;28;20075;-73
2023/04/13 07:50:40;;;;;;;13.57;2.80;;;10.80;99.90;;;;;;5052147;28;20032;-73
2023/04/13 07:53:05;;;;;;;13.80;2.90;;;10.80;99.90;;;;;;5051739;28;20059;-74
2023/04/13 07:55:31;;;;;;;12.50;3.28;;;10.90;99.90;;;;;;5051808;28;20052;-74
2023/04/13 07:57:58;;;;;;;15.43;3.00;;;10.90;99.90;;;;;;5052173;28;20090;-74
2023/04/13 08:00:24;;;;;;;14.27;2.97;;;10.80;99.90;;;;;;5052073;28;20029;-73
2023/04/13 08:02:52;;;;;;;11.88;2.80;;;10.90;99.90;;;;;;5051831;28;20033;-71
2023/04/13 08:05:18;;;;;;;13.02;2.60;;;11.00;99.90;;;;;;5052089;28;20478;-72
2023/04/13 08:07:45;;;;;;;15.48;2.42;;;11.10;99.90;;;;;;5051572;28;20025;-71
2023/04/13 08:10:11;;;;;;;9.48;2.40;;;11.30;99.90;;;;;;5050634;28;20040;-72
2023/04/13 08:12:37;;;;;;;11.23;2.70;;;11.40;99.90;;;;;;5052114;28;20021;-72
2023/04/13 08:15:03;;;;;;;13.25;2.50;;;11.40;99.90;;;;;;5051596;28;20393;-71
2023/04/13 08:17:28;;;;;;;10.95;2.65;;;11.20;99.90;;;;;;5051790;28;20033;-71
2023/04/13 08:19:54;;;;;;;12.05;2.85;;;11.40;99.90;;;;;;5052072;28;20029;-74
2023/04/13 08:22:19;;;;;;;13.18;2.78;;;11.40;99.90;;;;;;5051562;28;20168;-73
2023/04/13 08:24:45;;;;;;;13.15;3.00;;;11.40;99.90;;;;;;5051772;28;20052;-74
2023/04/13 08:27:11;;;;;;;10.93;2.95;;;11.40;99.90;;;;;;5051794;28;20025;-74
2023/04/13 08:29:36;;;;;;;12.90;3.13;;;11.40;99.90;;;;;;5055399;28;20124;-74
2023/04/13 08:32:02;;;;;;;14.70;3.33;;;11.40;99.90;;;;;;5054929;28;20025;-74
2023/04/13 08:34:28;;;;;;;21.60;4.00;;;11.40;99.90;;;;;;5055820;28;20029;-74
2023/04/13 08:36:54;;;;;;;12.80;2.83;;;11.40;99.90;;;;;;5054871;28;20091;-74
2023/04/13 08:39:20;;;;;;;15.45;3.03;;;11.50;99.90;;;;;;5055395;28;20052;-74
2023/04/13 08:41:47;;;;;;;12.38;3.40;;;11.60;99.90;;;;;;5055553;28;20417;-74
2023/04/13 08:44:14;;;;;;;13.15;3.28;;;11.70;99.90;;;;;;5055379;28;20037;-74
2023/04/13 08:46:42;;;;;;;18.88;3.80;;;11.70;99.90;;;;;;5055374;28;20520;-74
2023/04/13 08:49:10;;;;;;;11.32;3.40;;;11.70;99.90;;;;;;5055311;28;20028;-74
2023/04/13 08:51:36;;;;;;;8.63;2.40;;;11.80;99.90;;;;;;5054920;28;20075;-73
2023/04/13 08:54:02;;;;;;;10.13;2.50;;;11.90;99.90;;;;;;5054396;28;20025;-74
2023/04/13 08:56:29;;;;;;;12.73;2.40;;;12.00;99.90;;;;;;5055212;28;20497;-73
2023/04/13 08:59:01;;;;;;;12.40;2.60;;;12.20;99.90;;;;;;5054860;28;20041;-74
2023/04/13 09:01:27;;;;;;;9.90;2.45;;;12.30;99.90;;;;;;5055244;28;20017;-74
2023/04/13 09:03:59;;;;;;;8.50;2.55;;;12.40;99.90;;;;;;5055249;28;20382;-74
2023/04/13 09:06:31;;;;;;;13.48;2.70;;;12.40;99.90;;;;;;5054986;28;20385;-74
2023/04/13 09:08:58;;;;;;;15.05;3.47;;;12.40;99.90;;;;;;5054991;28;20032;-74
2023/04/13 09:11:24;;;;;;;18.98;3.47;;;12.20;99.90;;;;;;5054944;28;20116;-74
2023/04/13 09:13:53;;;;;;;21.80;4.85;;;12.10;99.90;;;;;;5054860;28;20104;-75
2023/04/13 09:16:18;;;;;;;15.02;3.50;;;12.10;99.90;;;;;;5055116;28;20460;-74
2023/04/13 09:18:49;;;;;;;14.35;2.88;;;12.10;99.90;;;;;;5054551;28;20025;-74
2023/04/13 09:21:15;;;;;;;14.55;2.83;;;12.10;99.90;;;;;;5054511;28;20107;-74
2023/04/13 09:23:55;;;;;;;12.68;2.95;;;12.20;99.90;;;;;;5055083;28;20840;-74
2023/04/13 09:26:21;;;;;;;12.95;3.00;;;12.20;99.90;;;;;;5054584;28;20056;-74
2023/04/13 09:28:49;;;;;;;14.95;2.55;;;12.30;99.90;;;;;;5054643;28;20096;-74
2023/04/13 09:31:15;;;;;;;11.82;2.50;;;12.30;99.90;;;;;;5054720;28;20052;-74
2023/04/13 09:33:46;;;;;;;11.07;2.65;;;12.30;99.90;;;;;;5054430;28;20509;-74
2023/04/13 09:36:13;;;;;;;14.00;2.92;;;12.20;99.90;;;;;;5053885;28;20182;-74
2023/04/13 09:38:39;;;;;;;14.55;3.00;;;12.20;99.90;;;;;;5054327;28;20067;-74
2023/04/13 09:41:06;;;;;;;12.95;2.30;;;12.10;99.90;;;;;;5054371;28;20076;-73
2023/04/13 09:43:36;;;;;;;11.18;2.67;;;12.00;99.90;;;;;;5053556;28;20078;-73
2023/04/13 09:46:02;;;;;;;12.48;2.40;;;11.80;99.90;;;;;;5053810;28;20036;-72
2023/04/13 09:48:28;;;;;;;8.18;1.80;;;11.50;99.90;;;;;;5054572;28;20028;-67
2023/04/13 09:51:01;;;;;;;12.90;2.85;;;10.60;99.90;;;;;;5053631;28;20025;-67
2023/04/13 09:53:42;;;;;;;7.85;1.95;;;10.10;99.90;;;;;;5054185;28;20104;-72
2023/04/13 09:56:08;;;;;;;15.23;3.15;;;10.20;99.90;;;;;;5053941;28;20044;-73
2023/04/13 09:58:53;;;;;;;11.27;2.22;;;10.00;99.90;;;;;;5053927;28;20033;-72
2023/04/13 10:01:19;;;;;;;11.57;2.00;;;10.00;99.90;;;;;;5054012;28;20087;-73
2023/04/13 10:03:45;;;;;;;16.17;2.20;;;10.40;99.90;;;;;;5053684;28;20017;-72
2023/04/13 10:06:11;;;;;;;17.42;3.70;;;10.50;99.90;;;;;;5053778;28;20382;-72
2023/04/13 10:08:38;;;;;;;20.55;3.42;;;10.70;99.90;;;;;;5053890;28;20024;-72
2023/04/13 10:11:10;;;;;;;21.67;4.63;;;11.00;99.90;;;;;;5053535;28;20377;-72
2023/04/13 10:13:57;;;;;;;17.90;3.65;;;11.30;99.90;;;;;;5053804;28;20519;-66
2023/04/13 10:16:48;;;;;;;18.33;4.03;;;11.50;99.90;;;;;;5053128;28;20028;-66
2023/04/13 10:19:22;;;;;;;18.17;4.70;;;11.40;99.90;;;;;;5053432;28;20047;-65
2023/04/13 10:21:50;;;;;;;;;;;11.40;99.90;;;;;;5053944;28;20048;-66
2023/04/13 10:24:17;;;;;;;22.80;6.53;;;11.40;99.90;;;;;;5053145;28;20015;-65
2023/04/13 10:26:43;;;;;;;18.38;4.88;;;11.30;99.90;;;;;;5053427;28;20516;-66
2023/04/13 10:29:12;;;;;;;22.73;6.50;;;11.40;99.90;;;;;;5052566;28;20557;-66
2023/04/13 10:31:46;;;;;;;19.77;4.50;;;11.40;99.90;;;;;;5052860;28;20017;-67
2023/04/13 10:34:26;;;;;;;15.00;2.97;;;11.40;99.90;;;;;;5052458;28;20043;-65
2023/04/13 10:36:54;;;;;;;11.73;2.80;;;11.40;99.90;;;;;;5052677;28;20048;-65
2023/04/13 10:39:28;;;;;;;14.43;2.95;;;11.50;99.90;;;;;;5052868;28;20052;-66
2023/04/13 10:42:09;;;;;;;10.73;2.67;;;11.60;99.90;;;;;;5053126;28;20108;-66
2023/04/13 10:44:49;;;;;;;11.68;2.85;;;11.50;99.90;;;;;;5052792;28;20033;-66
2023/04/13 10:47:19;;;;;;;10.77;2.80;;;11.50;99.90;;;;;;5052762;28;20029;-66
2023/04/13 10:49:46;;;;;;;9.95;2.55;;;11.50;99.90;;;;;;5052816;28;20036;-65
2023/04/13 10:52:12;;;;;;;9.57;2.30;;;11.50;99.90;;;;;;5052038;28;20056;-65
2023/04/13 10:54:40;;;;;;;11.80;2.78;;;11.50;99.90;;;;;;5051908;28;20029;-66
2023/04/13 10:57:07;;;;;;;13.25;2.92;;;11.50;99.90;;;;;;5052886;28;20024;-65
2023/04/13 10:59:40;;;;;;;13.98;2.97;;;11.50;99.90;;;;;;5052629;28;20032;-66
2023/04/13 11:02:14;;;;;;;12.75;3.30;;;11.50;99.90;;;;;;5052891;28;20040;-67
2023/04/13 11:04:42;;;;;;;12.20;3.35;;;11.50;99.90;;;;;;5052863;28;20040;-67
2023/04/13 11:07:20;;;;;;;13.15;3.13;;;11.50;99.90;;;;;;5052508;28;20017;-66
2023/04/13 11:09:46;;;;;;;8.25;2.30;;;11.50;99.90;;;;;;5052936;28;20033;-66
2023/04/13 11:12:16;;;;;;;7.22;1.92;;;11.40;99.90;;;;;;5052564;28;20025;-67
2023/04/13 11:14:49;;;;;;;8.60;2.55;;;11.40;99.90;;;;;;5052533;28;20021;-66
2023/04/13 11:17:17;;;;;;;7.13;1.65;;;11.50;99.90;;;;;;5052143;28;20482;-66
2023/04/13 11:19:47;;;;;;;8.65;2.15;;;11.60;99.90;;;;;;5052256;28;20058;-65
2023/04/13 11:22:17;;;;;;;7.78;2.00;;;11.60;99.90;;;;;;5052675;28;20032;-65
2023/04/13 11:24:44;;;;;;;6.63;2.20;;;11.60;99.90;;;;;;5052239;28;20379;-65
2023/04/13 11:27:20;;;;;;;5.63;1.58;;;11.70;99.90;;;;;;5052318;28;20485;-65
2023/04/13 11:29:59;;;;;;;5.55;1.55;;;11.70;99.90;;;;;;5051719;28;20032;-65
2023/04/13 11:32:26;;;;;;;4.25;1.60;;;11.80;99.90;;;;;;5049356;28;20436;-65
2023/04/13 11:34:52;;;;;;;8.93;1.60;;;11.90;99.90;;;;;;5051936;28;20071;-65
2023/04/13 11:37:18;;;;;;;8.38;1.48;;;12.30;99.90;;;;;;5050881;28;20098;-66
2023/04/13 11:39:44;;;;;;;6.90;1.60;;;12.90;99.90;;;;;;5052042;28;20037;-66
2023/04/13 11:42:11;;;;;;;5.38;1.65;;;13.30;99.90;;;;;;5052231;28;20021;-66
2023/04/13 11:44:38;;;;;;;5.43;1.50;;;13.70;99.90;;;;;;5052137;28;20055;-66
2023/04/13 11:47:04;;;;;;;7.82;1.40;;;13.80;99.90;;;;;;5051877;28;20100;-66
2023/04/13 11:49:31;;;;;;;6.47;1.60;;;13.90;99.90;;;;;;5052416;28;20029;-66
2023/04/13 11:51:58;;;;;;;7.05;1.60;;;13.80;99.90;;;;;;5052168;28;20029;-66
2023/04/13 11:54:24;;;;;;;7.22;1.67;;;14.00;99.90;;;;;;5051988;28;20401;-66
2023/04/13 11:56:49;;;;;;;6.75;1.60;;;13.90;99.90;;;;;;5052026;28;20029;-66
2023/04/13 11:59:15;;;;;;;6.72;1.80;;;14.00;99.90;;;;;;5051950;28;20418;-66
2023/04/13 12:01:48;;;;;;;7.78;2.13;;;14.00;99.90;;;;;;5051617;28;20035;-66
2023/04/13 12:04:14;;;;;;;7.53;1.70;;;14.10;99.90;;;;;;5051876;28;20067;-66
2023/04/13 12:06:42;;;;;;;6.22;1.75;;;14.20;99.90;;;;;;5054763;28;20029;-66
2023/04/13 12:09:08;;;;;;;8.05;1.80;;;14.40;99.90;;;;;;5056144;28;20025;-66
2023/04/13 12:11:42;;;;;;;6.90;1.90;;;14.20;99.90;;;;;;5056315;28;20116;-66
2023/04/13 12:14:17;;;;;;;9.15;2.10;;;14.20;99.90;;;;;;5055705;28;20017;-66
2023/04/13 12:16:47;;;;;;;8.27;2.10;;;14.10;99.90;;;;;;5055974;28;20124;-66
2023/04/13 12:19:12;;;;;;;11.68;2.85;;;14.00;99.90;;;;;;5055813;28;20029;-66
2023/04/13 12:21:48;;;;;;;9.10;2.05;;;14.00;99.90;;;;;;5055903;28;20485;-66
2023/04/13 12:24:14;;;;;;;9.02;2.45;;;13.80;99.90;;;;;;5055907;28;20033;-66
2023/04/13 12:26:40;;;;;;;8.48;2.50;;;13.40;99.90;;;;;;5055322;28;20082;-66
2023/04/13 12:29:07;;;;;;;9.70;2.30;;;13.10;99.90;;;;;;5055778;28;20041;-66
2023/04/13 12:31:38;;;;;;;10.65;2.65;;;12.90;99.90;;;;;;5055488;28;20375;-66
2023/04/13 12:34:07;;;;;;;9.13;2.40;;;12.80;99.90;;;;;;5055643;28;20028;-66
2023/04/13 12:36:35;;;;;;;15.43;2.63;;;12.60;99.90;;;;;;5055772;28;20056;-66
2023/04/13 12:39:01;;;;;;;11.23;2.47;;;12.40;99.90;;;;;;5055232;28;20048;-66
2023/04/13 12:41:27;;;;;;;10.55;2.63;;;12.30;99.90;;;;;;5055438;28;20017;-66
2023/04/13 12:43:52;;;;;;;13.10;2.58;;;12.20;99.90;;;;;;5055050;28;20025;-66
2023/04/13 12:46:19;;;;;;;11.43;2.92;;;12.00;99.90;;;;;;5055338;28;20426;-66